createdAt,value
2018-01-18T00:01:55.742Z,7.23
2018-01-18T00:04:26.345Z,7.28
2018-01-18T00:06:56.895Z,7.34
2018-01-18T00:09:27.724Z,7.38
2018-01-18T00:11:58.309Z,7.41
2018-01-18T00:14:28.619Z,7.37
2018-01-18T00:16:59.228Z,7.39
2018-01-18T00:19:29.748Z,7.43
2018-01-18T00:22:00.420Z,7.34
2018-01-18T00:24:30.682Z,7.33
2018-01-18T00:27:01.285Z,7.52
2018-01-18T00:29:31.629Z,7.44
2018-01-18T00:32:03.302Z,7.46
2018-01-18T00:34:33.827Z,7.55
2018-01-18T00:37:04.279Z,7.50
2018-01-18T00:39:34.746Z,7.53
2018-01-18T00:42:05.556Z,7.55
2018-01-18T00:44:35.835Z,7.54
2018-01-18T00:47:06.468Z,7.48
2018-01-18T00:49:37.342Z,7.55
2018-01-18T00:52:07.734Z,7.48
2018-01-18T00:54:38.035Z,7.60
2018-01-18T00:57:08.807Z,7.64
2018-01-18T00:59:39.126Z,7.68
2018-01-18T01:02:10.119Z,7.73
2018-01-18T01:04:40.736Z,7.83
2018-01-18T01:07:11.155Z,7.62
2018-01-18T01:09:41.675Z,7.58
2018-01-18T01:12:12.291Z,7.78
2018-01-18T01:14:42.665Z,7.54
2018-01-18T01:17:14.615Z,7.42
2018-01-18T01:19:45.162Z,7.59
2018-01-18T01:22:15.782Z,7.41
2018-01-18T01:24:46.033Z,7.37
2018-01-18T01:27:17.282Z,7.41
2018-01-18T01:29:47.451Z,7.44
2018-01-18T01:32:24.658Z,7.48
2018-01-18T01:34:55.411Z,7.64
2018-01-18T01:37:26.648Z,7.56
2018-01-18T01:39:58.653Z,7.25
2018-01-18T01:42:29.625Z,7.57
2018-01-18T01:45:03.599Z,7.44
2018-01-18T01:47:34.850Z,7.34
2018-01-18T01:50:05.498Z,7.20
2018-01-18T01:52:35.758Z,7.20
2018-01-18T01:55:06.856Z,7.38
2018-01-18T01:57:37.068Z,7.54
2018-01-18T02:00:08.950Z,6.58
2018-01-18T02:02:39.490Z,7.27
2018-01-18T02:05:10.332Z,7.42
2018-01-18T02:07:40.897Z,7.43
2018-01-18T02:10:12.248Z,7.55
2018-01-18T02:12:44.773Z,7.45
2018-01-18T02:15:24.766Z,7.55
2018-01-18T02:18:25.650Z,7.40
2018-01-18T02:20:57.837Z,7.57
2018-01-18T02:23:29.152Z,7.47
2018-01-18T02:25:59.687Z,7.50
2018-01-18T02:28:30.615Z,7.53
2018-01-18T02:31:01.442Z,7.42
2018-01-18T02:33:31.868Z,7.54
2018-01-18T02:36:02.754Z,7.39
2018-01-18T02:38:33.269Z,7.42
2018-01-18T02:41:03.618Z,7.26
2018-01-18T02:43:34.215Z,7.45
2018-01-18T02:46:06.078Z,7.52
2018-01-18T02:48:36.367Z,7.56
2018-01-18T02:51:07.051Z,7.62
2018-01-18T02:56:42.556Z,7.41
2018-01-18T02:59:13.015Z,7.56
2018-01-18T03:01:43.557Z,7.53
2018-01-18T03:04:16.987Z,7.64
2018-01-18T03:06:48.048Z,7.49
2018-01-18T03:09:18.844Z,7.28
2018-01-18T03:11:50.076Z,7.43
2018-01-18T03:14:20.293Z,7.49
2018-01-18T03:16:50.517Z,7.40
2018-01-18T03:19:21.098Z,7.42
2018-01-18T03:21:52.168Z,7.08
2018-01-18T03:24:22.610Z,7.26
2018-01-18T03:26:53.737Z,6.99
2018-01-18T03:29:23.992Z,6.97
2018-01-18T03:31:54.518Z,6.71
2018-01-18T03:34:24.736Z,6.56
2018-01-18T03:36:55.123Z,6.78
2018-01-18T03:39:25.712Z,6.48
2018-01-18T03:41:56.551Z,6.53
2018-01-18T03:44:26.757Z,6.25
2018-01-18T03:46:57.555Z,5.95
2018-01-18T03:49:28.158Z,5.73
2018-01-18T03:51:58.484Z,5.76
2018-01-18T03:54:28.831Z,6.28
2018-01-18T03:56:59.447Z,5.78
2018-01-18T03:59:30.041Z,5.88
2018-01-18T04:02:00.901Z,5.91
2018-01-18T04:04:31.373Z,5.93
2018-01-18T04:07:02.274Z,5.46
2018-01-18T04:09:32.842Z,5.39
2018-01-18T04:12:03.353Z,5.49
2018-01-18T04:14:34.151Z,5.24
2018-01-18T04:17:04.781Z,5.13
2018-01-18T04:19:35.539Z,5.25
2018-01-18T04:22:05.783Z,5.32
2018-01-18T04:24:35.972Z,5.27
2018-01-18T04:27:06.910Z,5.31
2018-01-18T04:29:36.992Z,5.29
2018-01-18T04:32:07.430Z,5.07
2018-01-18T04:34:37.749Z,5.25
2018-01-18T04:37:08.017Z,5.14
2018-01-18T04:39:38.176Z,5.49
2018-01-18T04:42:08.779Z,5.01
2018-01-18T04:44:38.912Z,5.02
2018-01-18T04:47:09.403Z,4.77
2018-01-18T04:49:40.473Z,4.94
2018-01-18T04:52:10.970Z,4.90
2018-01-18T04:54:41.135Z,4.88
2018-01-18T04:57:11.649Z,5.16
2018-01-18T04:59:41.851Z,5.07
2018-01-18T05:02:12.913Z,4.94
2018-01-18T05:04:43.347Z,5.09
2018-01-18T05:07:14.639Z,4.99
2018-01-18T05:09:45.280Z,4.96
2018-01-18T05:12:16.125Z,5.22
2018-01-18T05:14:46.522Z,5.27
2018-01-18T05:17:17.359Z,5.43
2018-01-18T05:19:48.103Z,5.33
2018-01-18T05:22:18.543Z,5.44
2018-01-18T05:24:48.675Z,5.51
2018-01-18T05:27:19.827Z,5.43
2018-01-18T05:29:50.866Z,5.48
2018-01-18T05:32:21.807Z,5.68
2018-01-18T05:34:52.909Z,5.65
2018-01-18T05:37:23.730Z,5.71
2018-01-18T05:39:54.011Z,5.79
2018-01-18T05:42:24.596Z,6.03
2018-01-18T05:44:55.027Z,5.99
2018-01-18T05:47:25.688Z,6.02
2018-01-18T05:49:57.012Z,6.23
2018-01-18T05:52:29.374Z,6.33
2018-01-18T05:55:01.120Z,6.14
2018-01-18T05:57:31.686Z,6.58
2018-01-18T06:00:05.200Z,6.91
2018-01-18T06:02:36.186Z,7.18
2018-01-18T06:05:06.477Z,7.49
2018-01-18T06:07:36.896Z,7.75
2018-01-18T06:10:07.282Z,7.92
2018-01-18T06:12:37.568Z,8.08
2018-01-18T06:15:09.081Z,8.08
2018-01-18T06:17:39.796Z,8.24
2018-01-18T06:20:11.744Z,8.26
2018-01-18T06:22:45.126Z,8.40
2018-01-18T06:25:16.136Z,8.39
2018-01-18T06:27:46.387Z,8.33
2018-01-18T06:30:17.009Z,8.45
2018-01-18T06:32:47.375Z,8.50
2018-01-18T06:35:18.623Z,8.49
2018-01-18T06:37:51.547Z,8.56
2018-01-18T06:40:22.421Z,8.58
2018-01-18T06:42:53.853Z,8.71
2018-01-18T06:45:24.854Z,8.74
2018-01-18T06:47:55.213Z,8.77
2018-01-18T06:50:26.086Z,8.91
2018-01-18T06:52:56.844Z,8.90
2018-01-18T06:55:28.938Z,8.96
2018-01-18T06:57:59.734Z,8.91
2018-01-18T07:00:32.267Z,9.06
2018-01-18T07:03:03.529Z,9.02
2018-01-18T07:05:41.025Z,9.14
2018-01-18T07:08:44.009Z,9.26
2018-01-18T07:11:15.699Z,9.28
2018-01-18T07:13:47.909Z,9.45
2018-01-18T07:16:21.041Z,9.42
2018-01-18T07:18:51.421Z,9.55
2018-01-18T07:21:24.539Z,9.64
2018-01-18T07:23:55.336Z,9.68
2018-01-18T07:26:26.270Z,9.75
2018-01-18T07:31:48.389Z,9.84
2018-01-18T07:34:19.157Z,9.92
2018-01-18T07:36:52.224Z,9.96
2018-01-18T07:39:33.700Z,10.10
2018-01-18T07:42:07.218Z,10.09
2018-01-18T07:44:39.496Z,10.26
2018-01-18T07:47:10.268Z,10.27
2018-01-18T07:49:43.643Z,10.42
2018-01-18T07:52:14.710Z,10.54
2018-01-18T07:54:45.934Z,10.61
2018-01-18T07:57:22.259Z,10.48
2018-01-18T07:59:54.534Z,10.65
2018-01-18T08:02:29.740Z,10.65
2018-01-18T08:05:02.261Z,10.73
2018-01-18T08:07:33.611Z,10.82
2018-01-18T08:10:06.155Z,10.85
2018-01-18T08:12:40.471Z,10.87
2018-01-18T08:15:14.151Z,10.79
2018-01-18T08:17:45.100Z,10.97
2018-01-18T08:20:15.469Z,11.03
2018-01-18T08:22:45.767Z,11.13
2018-01-18T08:25:17.102Z,11.23
2018-01-18T08:27:47.846Z,11.32
2018-01-18T08:30:21.707Z,11.44
2018-01-18T08:32:53.957Z,11.48
2018-01-18T08:35:25.492Z,11.56
2018-01-18T08:37:55.858Z,11.77
2018-01-18T08:40:32.718Z,11.74
2018-01-18T08:43:05.092Z,11.80
2018-01-18T08:45:37.474Z,11.76
2018-01-18T08:48:08.592Z,11.85
2018-01-18T08:50:43.523Z,11.98
2018-01-18T08:53:14.597Z,11.93
2018-01-18T08:55:46.960Z,12.07
2018-01-18T08:58:33.325Z,12.15
2018-01-18T09:01:04.542Z,12.25
2018-01-18T09:03:35.849Z,12.30
2018-01-18T09:06:07.805Z,12.33
2018-01-18T09:08:40.383Z,12.50
2018-01-18T09:11:25.265Z,12.50
2018-01-18T09:13:59.992Z,12.51
2018-01-18T09:16:31.852Z,12.51
2018-01-18T09:19:02.184Z,12.55
2018-01-18T09:21:35.387Z,12.58
2018-01-18T09:24:06.810Z,12.47
2018-01-18T09:26:40.192Z,12.50
2018-01-18T09:29:13.240Z,12.57
2018-01-18T09:31:44.495Z,12.52
2018-01-18T09:34:22.057Z,12.52
2018-01-18T09:36:52.389Z,12.51
2018-01-18T09:39:23.136Z,12.44
2018-01-18T09:42:02.247Z,12.42
2018-01-18T09:44:36.520Z,12.36
2018-01-18T09:47:07.567Z,12.25
2018-01-18T09:49:40.123Z,12.10
2018-01-18T09:52:11.460Z,12.12
2018-01-18T09:54:41.936Z,12.03
2018-01-18T09:57:15.262Z,12.13
2018-01-18T09:59:48.409Z,11.39
2018-01-18T10:02:21.487Z,11.54
2018-01-18T10:04:54.058Z,11.29
2018-01-18T10:07:29.603Z,11.29
2018-01-18T10:10:01.279Z,11.29
2018-01-18T10:12:38.065Z,11.02
2018-01-18T10:15:15.112Z,10.83
2018-01-18T10:17:46.055Z,10.65
2018-01-18T10:20:17.130Z,10.57
2018-01-18T10:22:48.661Z,10.40
2018-01-18T10:25:19.476Z,10.39
2018-01-18T10:27:55.400Z,10.38
2018-01-18T10:30:26.925Z,10.24
2018-01-18T10:32:57.265Z,10.13
2018-01-18T10:35:27.875Z,10.20
2018-01-18T10:37:59.241Z,10.58
2018-01-18T10:40:31.119Z,10.37
2018-01-18T10:43:03.171Z,10.54
2018-01-18T10:45:33.966Z,10.29
2018-01-18T10:48:04.230Z,10.11
2018-01-18T10:50:34.850Z,9.99
2018-01-18T10:53:05.674Z,9.84
2018-01-18T10:55:36.092Z,9.38
2018-01-18T10:58:06.707Z,9.30
2018-01-18T11:00:40.871Z,9.40
2018-01-18T11:03:12.268Z,9.37
2018-01-18T11:05:42.567Z,9.55
2018-01-18T11:08:14.111Z,9.40
2018-01-18T11:10:45.630Z,9.38
2018-01-18T11:13:19.535Z,9.47
2018-01-18T11:15:50.662Z,9.36
2018-01-18T11:18:21.741Z,8.99
2018-01-18T11:20:54.149Z,9.11
2018-01-18T11:23:25.830Z,8.94
2018-01-18T11:25:57.581Z,9.08
2018-01-18T11:28:33.746Z,9.09
2018-01-18T11:31:08.072Z,8.64
2018-01-18T11:33:39.097Z,8.78
2018-01-18T11:36:09.958Z,8.92
2018-01-18T11:38:44.101Z,8.89
2018-01-18T11:41:18.839Z,9.01
2018-01-18T11:43:52.043Z,9.02
2018-01-18T11:46:24.669Z,8.89
2018-01-18T11:49:07.454Z,8.71
2018-01-18T11:51:39.999Z,8.82
2018-01-18T11:54:15.219Z,8.92
2018-01-18T11:56:46.757Z,9.02
2018-01-18T11:59:19.228Z,8.82
2018-01-18T12:01:50.632Z,8.93
2018-01-18T12:04:21.781Z,8.82
2018-01-18T12:07:00.386Z,8.98
2018-01-18T12:09:32.145Z,8.91
2018-01-18T12:12:04.294Z,8.98
2018-01-18T12:14:35.997Z,8.93
2018-01-18T12:17:11.096Z,8.72
2018-01-18T12:19:44.013Z,8.57
2018-01-18T12:22:14.868Z,8.83
2018-01-18T12:24:51.137Z,9.18
2018-01-18T12:27:27.882Z,8.90
2018-01-18T12:29:59.531Z,8.58
2018-01-18T12:32:30.687Z,8.51
2018-01-18T12:35:03.053Z,8.56
2018-01-18T12:37:44.833Z,8.88
2018-01-18T12:40:18.620Z,8.75
2018-01-18T12:42:51.627Z,8.84
2018-01-18T12:45:23.272Z,8.63
2018-01-18T12:48:10.361Z,8.57
2018-01-18T12:50:43.411Z,8.57
2018-01-18T12:53:17.255Z,8.22
2018-01-18T12:55:50.992Z,8.37
2018-01-18T12:58:22.327Z,8.26
2018-01-18T13:00:56.176Z,8.29
2018-01-18T13:03:28.508Z,8.37
2018-01-18T13:06:01.809Z,8.38
2018-01-18T13:08:32.976Z,8.31
2018-01-18T13:11:06.120Z,8.21
2018-01-18T13:13:39.710Z,8.20
2018-01-18T13:16:12.659Z,8.45
2018-01-18T13:21:35.774Z,8.28
2018-01-18T13:24:09.754Z,8.28
2018-01-18T13:26:42.042Z,8.30
2018-01-18T13:29:20.538Z,8.28
2018-01-18T13:31:55.204Z,8.17
2018-01-18T13:34:28.720Z,8.28
2018-01-18T13:36:59.843Z,8.24
2018-01-18T13:39:33.292Z,8.54
2018-01-18T13:42:13.841Z,8.28
2018-01-18T13:44:49.026Z,8.06
2018-01-18T13:47:23.395Z,8.31
2018-01-18T13:50:01.901Z,8.34
2018-01-18T13:52:36.897Z,8.34
2018-01-18T13:55:10.948Z,8.39
2018-01-18T13:57:44.701Z,8.54
2018-01-18T14:03:29.363Z,8.42
2018-01-18T14:06:00.558Z,8.32
2018-01-18T14:08:33.954Z,8.31
2018-01-18T14:11:08.102Z,8.47
2018-01-18T14:13:51.827Z,8.44
2018-01-18T14:16:30.177Z,8.24
2018-01-18T14:19:14.129Z,8.32
2018-01-18T14:21:47.661Z,8.34
2018-01-18T14:24:20.896Z,8.41
2018-01-18T14:26:52.682Z,8.46
2018-01-18T14:29:25.321Z,8.41
2018-01-18T14:32:01.605Z,8.39
2018-01-18T14:34:35.836Z,8.33
2018-01-18T14:37:15.242Z,8.44
2018-01-18T14:39:48.824Z,8.24
2018-01-18T14:42:23.374Z,8.33
2018-01-18T14:44:54.876Z,8.33
2018-01-18T14:47:29.954Z,8.66
2018-01-18T14:50:02.946Z,8.58
2018-01-18T14:52:39.858Z,8.71
2018-01-18T14:55:15.934Z,8.58
2018-01-18T14:57:55.518Z,8.92
2018-01-18T15:00:39.266Z,8.87
2018-01-18T15:03:11.147Z,8.83
2018-01-18T15:05:43.961Z,8.86
2018-01-18T15:08:21.520Z,8.89
2018-01-18T15:10:55.162Z,9.03
2018-01-18T15:13:32.294Z,8.97
2018-01-18T15:16:04.585Z,8.92
2018-01-18T15:18:37.093Z,9.07
2018-01-18T15:21:09.852Z,9.00
2018-01-18T15:23:44.187Z,9.00
2018-01-18T15:26:18.023Z,9.20
2018-01-18T15:28:59.295Z,9.07
2018-01-18T15:31:34.689Z,8.99
2018-01-18T15:34:08.356Z,8.86
2018-01-18T15:36:48.686Z,8.70
2018-01-18T15:39:30.333Z,8.91
2018-01-18T15:42:05.833Z,8.88
2018-01-18T15:44:39.525Z,8.68
2018-01-18T15:47:14.165Z,8.91
2018-01-18T15:52:40.827Z,8.98
2018-01-18T15:55:15.340Z,8.97
2018-01-18T15:58:12.833Z,8.65
2018-01-18T16:00:45.283Z,8.90
2018-01-18T16:03:40.814Z,9.00
2018-01-18T16:06:31.457Z,9.01
2018-01-18T16:09:07.630Z,8.83
2018-01-18T16:11:39.596Z,8.71
2018-01-18T16:14:14.844Z,8.86
2018-01-18T16:19:32.523Z,8.83
2018-01-18T16:22:21.312Z,8.59
2018-01-18T16:24:56.247Z,8.54
2018-01-18T16:27:40.475Z,8.42
2018-01-18T16:30:22.207Z,8.75
2018-01-18T16:32:57.180Z,8.67
2018-01-18T16:35:45.198Z,8.73
2018-01-18T16:38:20.712Z,8.83
2018-01-18T16:40:57.654Z,8.88
2018-01-18T16:43:30.784Z,8.82
2018-01-18T16:46:04.722Z,8.61
2018-01-18T16:48:40.777Z,8.72
2018-01-18T16:51:16.100Z,8.79
2018-01-18T16:54:03.001Z,8.75
2018-01-18T16:56:40.396Z,8.90
2018-01-18T16:59:15.115Z,8.77
2018-01-18T17:01:50.229Z,8.89
2018-01-18T17:04:25.292Z,8.95
2018-01-18T17:07:03.518Z,8.93
2018-01-18T17:09:42.950Z,8.80
2018-01-18T17:12:17.238Z,8.91
2018-01-18T17:14:52.131Z,8.87
2018-01-18T17:17:26.720Z,8.69
2018-01-18T17:20:01.708Z,8.72
2018-01-18T17:22:37.083Z,8.67
2018-01-18T17:25:13.378Z,8.73
2018-01-18T17:27:55.105Z,8.74
2018-01-18T17:30:33.761Z,8.51
2018-01-18T17:33:07.559Z,8.68
2018-01-18T17:35:43.199Z,8.73
2018-01-18T17:38:23.887Z,8.71
2018-01-18T17:41:00.931Z,8.76
2018-01-18T17:43:38.014Z,8.62
2018-01-18T17:46:20.070Z,8.58
2018-01-18T17:48:56.124Z,8.48
2018-01-18T17:51:31.801Z,8.15
2018-01-18T17:54:06.184Z,7.99
2018-01-18T17:56:45.272Z,7.79
2018-01-18T18:02:08.926Z,7.45
2018-01-18T18:07:34.513Z,7.25
2018-01-18T18:10:17.544Z,7.30
2018-01-18T18:13:03.276Z,7.41
2018-01-18T18:15:39.103Z,7.67
2018-01-18T18:18:15.449Z,7.94
2018-01-18T18:20:51.152Z,7.83
2018-01-18T18:23:26.848Z,7.88
2018-01-18T18:26:06.223Z,7.88
2018-01-18T18:28:41.587Z,7.78
2018-01-18T18:31:21.015Z,7.95
2018-01-18T18:33:57.751Z,7.73
2018-01-18T18:36:38.170Z,7.98
2018-01-18T18:39:18.230Z,7.96
2018-01-18T18:41:52.539Z,7.91
2018-01-18T18:44:35.038Z,7.92
2018-01-18T18:47:11.820Z,7.91
2018-01-18T18:49:53.254Z,7.97
2018-01-18T18:52:28.792Z,7.95
2018-01-18T18:55:02.825Z,7.81
2018-01-18T18:57:36.439Z,7.89
2018-01-18T19:00:17.105Z,7.76
2018-01-18T19:02:49.202Z,7.80
2018-01-18T19:05:21.693Z,7.81
2018-01-18T19:07:53.524Z,7.69
2018-01-18T19:10:30.257Z,7.87
2018-01-18T19:13:02.197Z,7.90
2018-01-18T19:15:42.208Z,8.02
2018-01-18T19:18:13.435Z,7.92
2018-01-18T19:20:47.603Z,7.94
2018-01-18T19:23:19.565Z,7.80
2018-01-18T19:25:57.249Z,7.77
2018-01-18T19:28:29.069Z,7.76
2018-01-18T19:31:00.128Z,7.73
2018-01-18T19:33:31.702Z,7.88
2018-01-18T19:36:05.058Z,7.84
2018-01-18T19:38:36.312Z,7.79
2018-01-18T19:41:07.366Z,7.77
2018-01-18T19:43:38.790Z,7.68
2018-01-18T19:46:12.089Z,7.66
2018-01-18T19:48:44.649Z,7.72
2018-01-18T19:51:15.661Z,7.78
2018-01-18T19:53:48.684Z,7.81
2018-01-18T19:56:21.018Z,7.76
2018-01-18T19:58:54.458Z,7.65
2018-01-18T20:01:25.792Z,7.63
2018-01-18T20:04:00.725Z,7.34
2018-01-18T20:06:32.381Z,7.06
2018-01-18T20:09:03.013Z,7.12
2018-01-18T20:11:35.072Z,7.25
2018-01-18T20:14:07.918Z,7.31
2018-01-18T20:16:40.792Z,7.30
2018-01-18T20:19:16.068Z,7.44
2018-01-18T20:21:47.862Z,7.62
2018-01-18T20:24:19.340Z,7.74
2018-01-18T20:26:51.058Z,7.86
2018-01-18T20:29:24.668Z,7.84
2018-01-18T20:31:58.011Z,7.79
2018-01-18T20:34:30.602Z,7.80
2018-01-18T20:37:03.604Z,7.64
2018-01-18T20:39:37.920Z,7.78
2018-01-18T20:42:08.967Z,7.77
2018-01-18T20:44:40.733Z,7.79
2018-01-18T20:47:12.780Z,7.88
2018-01-18T20:49:47.381Z,7.45
2018-01-18T20:52:19.629Z,7.27
2018-01-18T20:54:52.859Z,7.39
2018-01-18T20:57:24.756Z,7.16
2018-01-18T20:59:56.909Z,7.39
2018-01-18T21:02:30.882Z,7.15
2018-01-18T21:05:01.863Z,7.32
2018-01-18T21:07:32.801Z,6.87
2018-01-18T21:10:04.969Z,7.06
2018-01-18T21:12:36.630Z,7.28
2018-01-18T21:15:09.055Z,6.99
2018-01-18T21:17:39.815Z,7.08
2018-01-18T21:20:10.562Z,7.42
2018-01-18T21:22:42.192Z,7.60
2018-01-18T21:25:12.744Z,7.70
2018-01-18T21:27:44.761Z,7.68
2018-01-18T21:30:21.159Z,7.76
2018-01-18T21:32:54.145Z,7.88
2018-01-18T21:35:30.493Z,8.00
2018-01-18T21:38:02.988Z,7.93
2018-01-18T21:40:34.108Z,7.87
2018-01-18T21:43:04.722Z,7.84
2018-01-18T21:45:38.062Z,7.75
2018-01-18T21:48:09.316Z,7.40
2018-01-18T21:50:40.419Z,7.62
2018-01-18T21:53:11.870Z,7.75
2018-01-18T21:55:43.804Z,7.74
2018-01-18T21:58:15.071Z,7.58
2018-01-18T22:00:47.575Z,7.58
2018-01-18T22:03:18.084Z,7.62
2018-01-18T22:05:50.240Z,7.55
2018-01-18T22:08:22.371Z,7.38
2018-01-18T22:10:57.483Z,7.53
2018-01-18T22:13:30.314Z,7.66
2018-01-18T22:16:03.043Z,7.74
2018-01-18T22:18:34.841Z,7.82
2018-01-18T22:21:06.762Z,7.90
2018-01-18T22:23:37.315Z,7.92
2018-01-18T22:26:08.099Z,7.88
2018-01-18T22:28:40.417Z,7.88
2018-01-18T22:31:12.658Z,7.88
2018-01-18T22:33:43.802Z,7.89
2018-01-18T22:36:14.377Z,7.95
2018-01-18T22:38:45.587Z,7.99
2018-01-18T22:41:16.730Z,7.93
2018-01-18T22:43:47.891Z,7.86
2018-01-18T22:46:19.514Z,7.98
2018-01-18T22:48:50.339Z,7.98
2018-01-18T22:51:20.917Z,8.08
2018-01-18T22:53:52.616Z,8.10
2018-01-18T22:56:23.923Z,8.04
2018-01-18T22:58:55.216Z,8.11
2018-01-18T23:01:26.278Z,8.15
2018-01-18T23:03:57.226Z,8.15
2018-01-18T23:06:28.127Z,8.12
2018-01-18T23:08:58.959Z,8.14
2018-01-18T23:11:29.582Z,8.15
2018-01-18T23:14:00.234Z,8.09
2018-01-18T23:16:31.137Z,8.16
2018-01-18T23:19:01.599Z,8.24
2018-01-18T23:21:33.393Z,8.18
2018-01-18T23:24:04.539Z,8.22
2018-01-18T23:26:34.921Z,8.26
2018-01-18T23:29:05.455Z,8.34
2018-01-18T23:31:36.735Z,8.34
2018-01-18T23:34:07.211Z,8.20
2018-01-18T23:36:38.016Z,8.10
2018-01-18T23:39:09.023Z,8.08
2018-01-18T23:41:40.120Z,8.11
2018-01-18T23:44:11.428Z,8.23
2018-01-18T23:46:41.987Z,8.34
2018-01-18T23:49:13.026Z,8.24
2018-01-18T23:51:43.893Z,7.99
2018-01-18T23:54:14.548Z,8.06
2018-01-18T23:56:46.068Z,7.94
2018-01-18T23:59:16.990Z,7.93
